AirNav   Air Wisconsin pilot careers
 
 1250 users online  

SC60 Cockfield Aerodrome
Scranton, South Carolina, USA

GOING TO SCRANTON?


FAA INFORMATION EFFECTIVE 21 JUNE 2018

Location

FAA Identifier: SC60
Lat/Long: 33-54-14.5850N / 079-41-02.2320W
33-54.243083N / 079-41.037200W
33.9040514 / -79.6839533
(estimated)
Elevation: 82 ft. / 25 m (estimated)
Variation: 06W (1985)
From city: 4 miles SE of SCRANTON, SC
Time zone: UTC -4 (UTC -5 during Standard Time)
Zip code: 29591

Airport Operations

Airport use: Private use. Permission required prior to landing
Activation date: 07/1984
Control tower: no
ARTCC: JACKSONVILLE CENTER
FSS: ANDERSON FLIGHT SERVICE STATION
Attendance: UNATNDD
Wind indicator: yes
Segmented circle: no

Airport Communications

WX AWOS-3 at CKI (14 nm SW): 124.775 (843-382-3000)
WX ASOS at FLO (17 nm N): PHONE 843-665-1306

Nearby radio navigation aids

VOR radial/distance  VOR name  Freq  Var
FLOr187/19.8FLORENCE VORTAC115.2003W

 
NDB name  Hdg/Dist  Freq  Var  ID
EVANS061/5.042006WCFY -.-. ..-. -.--
HORRY288/28.137008WHYW .... -.-- .--
ANDREWS350/28.325506WPHH .--. .... ....
MANNING060/32.238106WMNI -- -. ..
DARLINGTON169/33.924506WUDG ..- -.. --.
SUMTER106/34.125207WSMS ... -- ...
DILLON215/36.327409WDLC -.. .-.. -.-.
HARTSVILLE151/37.134107WHVS .... ...- ...
GEORGETOWN341/39.624208WGGE --. --. .

Airport Services

Runway Information

Runway 4/22

Dimensions: 2800 x 66 ft. / 853 x 20 m
Surface: turf
RUNWAY 4  RUNWAY 22
Traffic pattern: leftleft
Obstructions: trees, 50 ft. from runway
ROAD SOUTH OF RWY.
trees, 50 ft. from runway

Airport Ownership and Management from official FAA records

Ownership: Privately-owned
Owner: MYRTLE P. COCKFIELD
1766 N. OLD GEORGETOWN RD
SCRANTON, SC 29591
Phone 843-389-2318
Manager: MYRTLE P. COCKFIELD
1766 N. OLD GEORGETOWN RD
SCRANTON, SC 29591
Phone 843-389-2318

Airport Operational Statistics

Aircraft based on the field: 8
Single engine airplanes: 8
    

Instrument Procedures

There are no published instrument procedures at SC60.

Some nearby airports with instrument procedures:

51J - Lake City Municipal Airport-CJ Evans Field (5 nm SW)
KCKI - Williamsburg Regional Airport (14 nm SW)
KFLO - Florence Regional Airport (17 nm N)
KMAO - Marion County Airport (24 nm NE)
KPHH - Robert F Swinnie Airport (28 nm S)
 
Loc | Ops | Rwys | IFR | FBO | Links
Com | Nav | Svcs | Stats | Notes

AirNav Hotels Sweepstakes
 
Area around SC60 (Cockfield Aerodrome)
 
Road maps at: MapQuest Bing Google
 
Aerial photo
WARNING: Photo may not be current or correct
Aerial photo of SC60 (Cockfield Aerodrome)
Do you have a better or more recent aerial photo of Cockfield Aerodrome that you would like to share? If so, please send us your photo.

 
Sectional chart

 
Airport distance calculator
Flying to Cockfield Aerodrome? Find the distance to fly.

From to SC60

Sunrise and sunset
Times for 21-Jun-2018
 Local
(UTC-4)
 Zulu
(UTC)
Morning civil twilight05:4009:40
Sunrise06:0910:09
Sunset20:3200:32
Evening civil twilight21:0101:01

Current date and time
Zulu (UTC)  21-Jun-2018 13:12:19
Local (UTC-4)  21-Jun-2018 09:12:19
 
METAR
KCKI 
14nm SW 
211255Z AUTO 25005KT 10SM CLR 27/24 A2984 RMK AO2
KFLO 
17nm N 
211253Z 25003KT 10SM CLR 27/24 A2984 RMK AO2 SLP100 T02670244
KMAO 
24nm NE 
211255Z AUTO 00000KT 5SM HZ CLR 26/23 A2984 RMK AO2
TAF
KFLO 
17nm N 
211122Z 2112/2212 25004KT P6SM FEW150 FM211700 26008KT P6SM VCTS BKN040CB FM220200 24008KT P6SM BKN050 FM220600 27004KT P6SM BKN050
NOTAMs
Click for the latest NOTAMs
NOTAMs are issued by the DoD/FAA and will open in a separate window not controlled by AirNav.

 

 
 

Would you like to see your business listed on this page?

 If your business provides an interesting product or service to pilots, flight crews, aircraft, or users of the Cockfield Aerodrome, you should consider listing it here.  To start the listing process, click on the button below
 
Add a business
 

Other Pages about Cockfield Aerodrome

Update a link
 
Copyright © AirNav, LLC. All rights reserved. Privacy Policy  Contact